createdAt,value
2022-09-23T00:01:08.246Z,14.61
2022-09-23T00:03:37.095Z,14.60
2022-09-23T00:06:10.653Z,14.56
2022-09-23T00:08:37.611Z,14.53
2022-09-23T00:11:08.327Z,14.50
2022-09-23T00:13:36.408Z,14.48
2022-09-23T00:16:08.158Z,14.45
2022-09-23T00:18:34.546Z,14.43
2022-09-23T00:21:10.070Z,14.39
2022-09-23T00:23:36.909Z,14.38
2022-09-23T00:26:05.223Z,14.36
2022-09-23T00:28:33.072Z,14.33
2022-09-23T00:31:12.313Z,14.30
2022-09-23T00:33:40.653Z,14.30
2022-09-23T00:36:10.915Z,14.28
2022-09-23T00:38:38.232Z,14.26
2022-09-23T00:41:05.496Z,14.25
2022-09-23T00:43:40.617Z,14.21
2022-09-23T00:46:09.898Z,14.22
2022-09-23T00:48:40.887Z,14.21
2022-09-23T00:51:10.459Z,14.23
2022-09-23T00:53:37.669Z,14.22
2022-09-23T00:56:08.081Z,14.21
2022-09-23T00:58:37.086Z,14.21
2022-09-23T01:01:04.037Z,14.21
2022-09-23T01:03:30.902Z,14.23
2022-09-23T01:05:57.853Z,14.24
2022-09-23T01:08:26.696Z,14.24
2022-09-23T01:11:25.551Z,14.21
2022-09-23T01:14:02.263Z,14.25
2022-09-23T01:16:42.938Z,14.22
2022-09-23T01:19:19.897Z,14.20
2022-09-23T01:22:01.165Z,14.18
2022-09-23T01:24:37.844Z,14.19
2022-09-23T01:27:19.282Z,14.17
2022-09-23T01:30:05.225Z,14.16
2022-09-23T01:32:56.631Z,14.17
2022-09-23T01:35:34.222Z,14.19
2022-09-23T01:38:15.939Z,14.16
2022-09-23T01:41:09.890Z,14.19
2022-09-23T01:43:52.621Z,14.23
2022-09-23T01:46:35.363Z,14.23
2022-09-23T01:49:38.428Z,14.23
2022-09-23T01:52:15.790Z,14.26
2022-09-23T01:55:01.056Z,14.24
2022-09-23T01:57:36.124Z,14.23
2022-09-23T02:00:14.547Z,14.23
2022-09-23T02:02:55.728Z,14.23
2022-09-23T02:05:29.737Z,14.22
2022-09-23T02:08:01.937Z,14.21
2022-09-23T02:10:42.050Z,14.19
2022-09-23T02:13:16.876Z,14.20
2022-09-23T02:15:49.728Z,14.21
2022-09-23T02:18:22.558Z,14.23
2022-09-23T02:20:52.577Z,14.22
2022-09-23T02:23:29.769Z,14.22
2022-09-23T02:26:14.218Z,14.23
2022-09-23T02:28:50.390Z,14.26
2022-09-23T02:31:45.456Z,14.21
2022-09-23T02:34:17.839Z,14.24
2022-09-23T02:37:17.054Z,14.17
2022-09-23T02:40:01.979Z,14.15
2022-09-23T02:43:04.516Z,14.11
2022-09-23T02:45:31.134Z,14.11
2022-09-23T02:48:05.572Z,14.05
2022-09-23T02:50:33.446Z,14.02
2022-09-23T02:53:00.811Z,13.98
2022-09-23T02:55:32.793Z,13.94
2022-09-23T02:58:01.554Z,13.92
2022-09-23T03:00:39.047Z,13.88
2022-09-23T03:03:18.908Z,13.85
2022-09-23T03:05:53.186Z,13.83
2022-09-23T03:08:36.794Z,13.78
2022-09-23T03:11:10.315Z,13.75
2022-09-23T03:13:56.014Z,13.69
2022-09-23T03:16:40.723Z,13.67
2022-09-23T03:19:21.225Z,13.66
2022-09-23T03:22:05.675Z,13.64
2022-09-23T03:24:35.004Z,13.67
2022-09-23T03:27:05.224Z,13.66
2022-09-23T03:29:34.437Z,13.68
2022-09-23T03:32:01.131Z,13.70
2022-09-23T03:34:31.708Z,13.71
2022-09-23T03:37:07.454Z,13.73
2022-09-23T03:39:42.198Z,13.77
2022-09-23T03:42:17.092Z,13.78
2022-09-23T03:44:45.903Z,13.80
2022-09-23T03:47:14.697Z,13.82
2022-09-23T03:49:44.530Z,13.83
2022-09-23T03:52:11.449Z,13.86
2022-09-23T03:54:37.904Z,13.86
2022-09-23T03:57:04.620Z,13.89
2022-09-23T03:59:31.517Z,13.91
2022-09-23T04:01:59.542Z,13.93
2022-09-23T04:04:29.868Z,13.94
2022-09-23T04:06:56.505Z,13.95
2022-09-23T04:09:23.769Z,13.94
2022-09-23T04:11:51.164Z,13.94
2022-09-23T04:14:18.748Z,13.95
2022-09-23T04:16:45.875Z,13.94
2022-09-23T04:19:13.392Z,13.94
2022-09-23T04:21:40.938Z,13.94
2022-09-23T04:24:08.376Z,13.92
2022-09-23T04:26:35.224Z,13.93
2022-09-23T04:29:02.342Z,13.93
2022-09-23T04:31:29.080Z,13.92
2022-09-23T04:33:55.880Z,13.92
2022-09-23T04:36:22.510Z,13.92
2022-09-23T04:38:49.268Z,13.92
2022-09-23T04:41:17.321Z,13.91
2022-09-23T04:43:44.179Z,13.92
2022-09-23T04:46:12.945Z,13.91
2022-09-23T04:48:41.513Z,13.90
2022-09-23T04:51:20.163Z,13.89
2022-09-23T04:53:48.348Z,13.90
2022-09-23T04:56:33.012Z,13.87
2022-09-23T04:59:02.568Z,13.90
2022-09-23T05:01:31.349Z,13.90
2022-09-23T05:04:05.106Z,13.91
2022-09-23T05:06:34.504Z,13.92
2022-09-23T05:09:01.949Z,13.90
2022-09-23T05:11:30.984Z,13.91
2022-09-23T05:13:57.375Z,13.92
2022-09-23T05:16:24.862Z,13.91
2022-09-23T05:18:52.515Z,13.89
2022-09-23T05:21:21.592Z,13.93
2022-09-23T05:23:50.208Z,13.95
2022-09-23T05:26:16.554Z,13.99
2022-09-23T05:28:43.005Z,14.01
2022-09-23T05:31:19.345Z,14.03
2022-09-23T05:33:57.159Z,14.02
2022-09-23T05:36:24.996Z,14.09
2022-09-23T05:38:51.461Z,14.12
2022-09-23T05:41:21.350Z,14.06
2022-09-23T05:43:47.719Z,14.04
2022-09-23T05:46:16.224Z,14.02
2022-09-23T05:48:43.999Z,14.05
2022-09-23T05:51:16.195Z,14.08
2022-09-23T05:53:45.226Z,14.11
2022-09-23T05:56:12.844Z,14.15
2022-09-23T05:58:39.384Z,14.23
2022-09-23T06:01:10.899Z,14.24
2022-09-23T06:03:37.885Z,14.30
2022-09-23T06:06:04.484Z,14.29
2022-09-23T06:08:32.180Z,14.31
2022-09-23T06:10:58.737Z,14.33
2022-09-23T06:13:27.443Z,14.36
2022-09-23T06:15:58.073Z,14.30
2022-09-23T06:18:24.674Z,14.29
2022-09-23T06:20:51.481Z,14.33
2022-09-23T06:23:17.814Z,14.31
2022-09-23T06:25:44.293Z,14.32
2022-09-23T06:28:12.011Z,14.34
2022-09-23T06:30:39.745Z,14.32
2022-09-23T06:33:06.252Z,14.32
2022-09-23T06:35:33.180Z,14.23
2022-09-23T06:38:03.740Z,14.18
2022-09-23T06:40:31.193Z,14.19
2022-09-23T06:42:59.566Z,14.13
2022-09-23T06:45:27.053Z,14.10
2022-09-23T06:47:58.071Z,14.05
2022-09-23T06:50:26.551Z,14.05
2022-09-23T06:52:56.716Z,14.04
2022-09-23T06:55:24.537Z,13.95
2022-09-23T06:57:51.124Z,13.89
2022-09-23T07:00:18.104Z,13.87
2022-09-23T07:02:45.003Z,13.79
2022-09-23T07:05:12.155Z,13.78
2022-09-23T07:07:39.373Z,13.77
2022-09-23T07:10:07.003Z,13.76
2022-09-23T07:12:34.078Z,13.73
2022-09-23T07:15:00.705Z,13.69
2022-09-23T07:17:27.450Z,13.63
2022-09-23T07:19:54.897Z,13.64
2022-09-23T07:22:26.320Z,13.63
2022-09-23T07:24:56.740Z,13.66
2022-09-23T07:27:24.425Z,13.70
2022-09-23T07:29:52.020Z,13.72
2022-09-23T07:32:20.274Z,13.81
2022-09-23T07:34:47.261Z,13.90
2022-09-23T07:37:14.886Z,14.01
2022-09-23T07:39:41.862Z,14.09
2022-09-23T07:42:08.602Z,14.07
2022-09-23T07:44:35.538Z,14.11
2022-09-23T07:47:02.002Z,14.08
2022-09-23T07:49:28.541Z,14.17
2022-09-23T07:51:54.879Z,14.25
2022-09-23T07:54:21.733Z,14.30
2022-09-23T07:56:48.120Z,14.47
2022-09-23T07:59:18.153Z,14.58
2022-09-23T08:01:48.134Z,14.68
2022-09-23T08:04:19.700Z,14.80
2022-09-23T08:06:48.898Z,14.91
2022-09-23T08:09:17.811Z,14.98
2022-09-23T08:11:44.358Z,15.11
2022-09-23T08:14:13.459Z,15.20
2022-09-23T08:16:40.687Z,15.30
2022-09-23T08:19:08.063Z,15.39
2022-09-23T08:21:34.984Z,15.43
2022-09-23T08:24:01.469Z,15.44
2022-09-23T08:26:28.564Z,15.46
2022-09-23T08:28:56.388Z,15.46
2022-09-23T08:31:23.584Z,15.48
2022-09-23T08:33:57.804Z,15.46
2022-09-23T08:36:25.694Z,15.45
2022-09-23T08:38:52.947Z,15.47
2022-09-23T08:41:52.050Z,15.52
2022-09-23T08:44:26.643Z,15.63
2022-09-23T08:47:05.567Z,15.72
2022-09-23T08:49:39.321Z,15.77
2022-09-23T08:52:16.365Z,15.79
2022-09-23T08:54:42.726Z,15.94
2022-09-23T08:57:22.935Z,16.08
2022-09-23T08:59:49.715Z,16.19
2022-09-23T09:02:21.315Z,16.21
2022-09-23T09:05:06.121Z,16.27
2022-09-23T09:07:37.440Z,16.47
2022-09-23T09:10:21.261Z,16.66
2022-09-23T09:12:50.993Z,16.86
2022-09-23T09:15:24.657Z,16.95
2022-09-23T09:17:59.134Z,17.01
2022-09-23T09:20:45.426Z,16.97
2022-09-23T09:23:21.337Z,17.04
2022-09-23T09:25:50.274Z,17.17
2022-09-23T09:28:24.521Z,17.24
2022-09-23T09:30:55.976Z,17.32
2022-09-23T09:33:32.201Z,17.28
2022-09-23T09:36:15.029Z,17.26
2022-09-23T09:38:41.367Z,17.39
2022-09-23T09:41:17.731Z,17.46
2022-09-23T09:43:56.254Z,17.62
2022-09-23T09:46:36.216Z,17.75
2022-09-23T09:49:12.256Z,17.89
2022-09-23T09:51:42.483Z,18.08
2022-09-23T09:54:18.127Z,18.28
2022-09-23T09:56:45.037Z,18.51
2022-09-23T09:59:18.224Z,18.73
2022-09-23T10:01:46.045Z,19.06
2022-09-23T10:04:29.562Z,19.35
2022-09-23T10:07:13.187Z,19.81
2022-09-23T10:09:47.137Z,20.17
2022-09-23T10:12:18.912Z,20.81
2022-09-23T10:14:51.392Z,21.50
2022-09-23T10:17:45.651Z,22.47
2022-09-23T10:20:15.091Z,24.29
2022-09-23T10:22:42.796Z,25.58
2022-09-23T10:25:26.725Z,26.79
2022-09-23T10:27:53.638Z,27.67
2022-09-23T10:30:28.831Z,28.22
2022-09-23T10:32:57.144Z,27.90
2022-09-23T10:35:25.369Z,27.61
2022-09-23T10:37:54.528Z,27.62
2022-09-23T10:40:49.105Z,27.53
2022-09-23T10:43:44.199Z,27.58
2022-09-23T10:46:36.093Z,27.62
2022-09-23T10:49:22.028Z,26.82
2022-09-23T10:51:57.165Z,26.35
2022-09-23T10:54:45.370Z,26.00
2022-09-23T10:57:40.487Z,25.78
2022-09-23T11:00:32.009Z,25.03
2022-09-23T11:03:38.444Z,24.57
2022-09-23T11:06:41.759Z,24.38
2022-09-23T11:09:27.424Z,24.32
2022-09-23T11:12:19.851Z,24.44
2022-09-23T11:15:09.350Z,24.47
2022-09-23T11:17:41.641Z,24.21
2022-09-23T11:20:23.333Z,23.90
2022-09-23T11:23:22.258Z,23.90
2022-09-23T11:26:14.865Z,24.17
2022-09-23T11:29:10.191Z,24.44
2022-09-23T11:31:56.161Z,24.68
2022-09-23T11:34:44.167Z,24.80
2022-09-23T11:37:18.942Z,24.76
2022-09-23T11:40:20.821Z,24.50
2022-09-23T11:42:58.054Z,24.13
2022-09-23T11:45:32.872Z,23.72
2022-09-23T11:48:31.439Z,23.18
2022-09-23T11:51:16.574Z,22.89
2022-09-23T11:54:20.678Z,22.74
2022-09-23T11:56:51.857Z,22.62
2022-09-23T11:59:41.996Z,22.40
2022-09-23T12:02:33.742Z,22.19
2022-09-23T12:05:12.930Z,21.92
2022-09-23T12:07:57.544Z,21.78
2022-09-23T12:10:37.401Z,21.78
2022-09-23T12:13:25.448Z,21.78
2022-09-23T12:16:25.721Z,21.82
2022-09-23T12:19:00.907Z,21.84
2022-09-23T12:21:49.807Z,21.81
2022-09-23T12:24:31.932Z,22.07
2022-09-23T12:27:04.170Z,22.22
2022-09-23T12:29:32.245Z,22.32
2022-09-23T12:31:59.218Z,22.79
2022-09-23T12:34:44.029Z,23.39
2022-09-23T12:37:10.586Z,23.62
2022-09-23T12:39:38.754Z,23.54
2022-09-23T12:42:12.133Z,23.50
2022-09-23T12:44:41.791Z,23.62
2022-09-23T12:47:14.052Z,23.43
2022-09-23T12:49:42.400Z,23.09
2022-09-23T12:52:11.736Z,22.76
2022-09-23T12:54:42.076Z,22.54
2022-09-23T12:57:30.472Z,22.29
2022-09-23T13:00:13.723Z,22.06
2022-09-23T13:03:09.248Z,21.90
2022-09-23T13:06:11.900Z,21.87
2022-09-23T13:08:41.536Z,21.94
2022-09-23T13:11:20.652Z,22.18
2022-09-23T13:13:49.087Z,22.44
2022-09-23T13:16:41.817Z,22.76
2022-09-23T13:19:27.647Z,22.81
2022-09-23T13:21:54.096Z,22.66
2022-09-23T13:24:36.268Z,22.61
2022-09-23T13:27:02.740Z,22.53
2022-09-23T13:29:40.415Z,22.43
2022-09-23T13:32:12.560Z,22.46
2022-09-23T13:34:39.815Z,22.32
2022-09-23T13:37:22.535Z,22.09
2022-09-23T13:39:50.044Z,22.20
2022-09-23T13:42:26.961Z,22.25
2022-09-23T13:44:57.749Z,22.10
2022-09-23T13:47:29.249Z,21.98
2022-09-23T13:49:56.243Z,22.02
2022-09-23T13:52:26.583Z,22.00
2022-09-23T13:54:53.710Z,21.95
2022-09-23T13:57:30.396Z,21.89
2022-09-23T14:00:02.416Z,21.81
2022-09-23T14:02:30.806Z,21.71
2022-09-23T14:05:01.059Z,21.61
2022-09-23T14:07:27.814Z,21.58
2022-09-23T14:09:55.638Z,21.47
2022-09-23T14:12:23.019Z,21.40
2022-09-23T14:14:51.744Z,21.34
2022-09-23T14:17:22.746Z,21.28
2022-09-23T14:19:50.519Z,21.19
2022-09-23T14:22:25.569Z,21.03
2022-09-23T14:24:53.831Z,21.03
2022-09-23T14:27:31.880Z,21.06
2022-09-23T14:29:59.975Z,21.12
2022-09-23T14:32:28.555Z,21.03
2022-09-23T14:35:19.931Z,20.86
2022-09-23T14:38:07.868Z,20.81
2022-09-23T14:40:38.134Z,20.73
2022-09-23T14:43:15.665Z,20.66
2022-09-23T14:45:47.309Z,20.63
2022-09-23T14:48:17.713Z,20.55
2022-09-23T14:51:14.634Z,20.27
2022-09-23T14:53:48.655Z,20.17
2022-09-23T14:56:22.803Z,20.08
2022-09-23T14:58:59.689Z,20.03
2022-09-23T15:01:32.101Z,19.96
2022-09-23T15:04:01.060Z,19.95
2022-09-23T15:06:27.623Z,20.00
2022-09-23T15:08:55.590Z,20.01
2022-09-23T15:11:22.397Z,20.03
2022-09-23T15:13:51.247Z,20.00
2022-09-23T15:16:25.244Z,19.93
2022-09-23T15:18:57.607Z,19.91
2022-09-23T15:21:24.865Z,19.94
2022-09-23T15:23:56.056Z,19.92
2022-09-23T15:26:25.215Z,19.86
2022-09-23T15:28:55.946Z,19.85
2022-09-23T15:31:26.323Z,19.86
2022-09-23T15:33:52.842Z,19.89
2022-09-23T15:36:27.737Z,19.95
2022-09-23T15:38:57.278Z,19.99
2022-09-23T15:41:24.347Z,19.91
2022-09-23T15:43:51.395Z,19.81
2022-09-23T15:46:25.089Z,19.70
2022-09-23T15:49:02.945Z,19.67
2022-09-23T15:51:29.307Z,19.67
2022-09-23T15:53:56.342Z,19.66
2022-09-23T15:56:29.004Z,19.60
2022-09-23T15:58:55.441Z,19.58
2022-09-23T16:01:28.374Z,19.52
2022-09-23T16:03:55.614Z,19.51
2022-09-23T16:06:24.195Z,19.49
2022-09-23T16:08:52.102Z,19.47
2022-09-23T16:11:21.026Z,19.47
2022-09-23T16:13:47.388Z,19.45
2022-09-23T16:16:13.913Z,19.40
2022-09-23T16:18:42.244Z,19.38
2022-09-23T16:21:12.793Z,19.35
2022-09-23T16:23:43.383Z,19.29
2022-09-23T16:26:24.327Z,19.26
2022-09-23T16:28:53.420Z,19.23
2022-09-23T16:31:20.644Z,19.23
2022-09-23T16:33:48.835Z,19.21
2022-09-23T16:36:28.797Z,19.21
2022-09-23T16:38:55.645Z,19.15
2022-09-23T16:41:26.872Z,19.14
2022-09-23T16:43:53.503Z,19.12
2022-09-23T16:46:20.661Z,19.09
2022-09-23T16:48:52.268Z,19.08
2022-09-23T16:51:26.434Z,19.12
2022-09-23T16:53:54.576Z,19.07
2022-09-23T16:56:27.950Z,19.03
2022-09-23T16:58:55.304Z,19.02
2022-09-23T17:01:42.808Z,18.97
2022-09-23T17:04:10.546Z,18.92
2022-09-23T17:06:46.339Z,18.86
2022-09-23T17:09:12.752Z,18.88
2022-09-23T17:11:39.697Z,18.86
2022-09-23T17:14:06.219Z,18.87
2022-09-23T17:16:34.856Z,18.85
2022-09-23T17:19:09.710Z,18.82
2022-09-23T17:21:36.502Z,18.84
2022-09-23T17:24:03.697Z,18.84
2022-09-23T17:26:30.331Z,18.84
2022-09-23T17:28:58.675Z,18.84
2022-09-23T17:31:25.855Z,18.86
2022-09-23T17:33:52.867Z,18.91
2022-09-23T17:36:20.415Z,18.92
2022-09-23T17:38:48.278Z,18.89
2022-09-23T17:41:18.021Z,18.87
2022-09-23T17:43:45.274Z,18.85
2022-09-23T17:46:14.486Z,18.80
2022-09-23T17:48:41.674Z,18.77
2022-09-23T17:51:19.691Z,18.72
2022-09-23T17:53:48.031Z,18.72
2022-09-23T17:56:20.008Z,18.68
2022-09-23T17:58:48.238Z,18.65
2022-09-23T18:01:18.254Z,18.62
2022-09-23T18:03:45.101Z,18.60
2022-09-23T18:06:14.576Z,18.58
2022-09-23T18:08:42.950Z,18.56
2022-09-23T18:11:20.074Z,18.51
2022-09-23T18:13:52.224Z,18.51
2022-09-23T18:16:20.250Z,18.49
2022-09-23T18:18:51.359Z,18.48
2022-09-23T18:21:17.891Z,18.47
2022-09-23T18:23:44.317Z,18.45
2022-09-23T18:26:19.118Z,18.41
2022-09-23T18:28:46.072Z,18.42
2022-09-23T18:31:12.463Z,18.40
2022-09-23T18:33:39.575Z,18.39
2022-09-23T18:36:06.456Z,18.36
2022-09-23T18:38:33.652Z,18.35
2022-09-23T18:41:00.492Z,18.33
2022-09-23T18:43:37.216Z,18.31
2022-09-23T18:46:09.432Z,18.31
2022-09-23T18:48:54.520Z,18.30
2022-09-23T18:51:24.005Z,18.28
2022-09-23T18:53:50.566Z,18.25
2022-09-23T18:56:20.709Z,18.23
2022-09-23T18:58:48.743Z,18.22
2022-09-23T19:01:15.932Z,18.20
2022-09-23T19:03:42.445Z,18.17
2022-09-23T19:06:21.041Z,18.04
2022-09-23T19:08:50.206Z,17.94
2022-09-23T19:11:17.284Z,17.87
2022-09-23T19:13:44.935Z,17.86
2022-09-23T19:16:14.075Z,17.97
2022-09-23T19:18:42.327Z,18.04
2022-09-23T19:21:13.119Z,18.08
2022-09-23T19:23:44.823Z,18.12
2022-09-23T19:26:12.657Z,18.15
2022-09-23T19:28:39.515Z,18.15
2022-09-23T19:31:10.826Z,18.12
2022-09-23T19:33:39.043Z,18.14
2022-09-23T19:36:06.233Z,18.12
2022-09-23T19:38:32.639Z,18.12
2022-09-23T19:41:03.653Z,18.10
2022-09-23T19:43:30.261Z,18.14
2022-09-23T19:45:56.697Z,18.12
2022-09-23T19:48:23.111Z,18.12
2022-09-23T19:50:49.452Z,18.10
2022-09-23T19:53:15.834Z,18.10
2022-09-23T19:55:44.175Z,18.07
2022-09-23T19:58:10.788Z,18.07
2022-09-23T20:00:37.228Z,18.07
2022-09-23T20:03:04.097Z,18.08
2022-09-23T20:05:30.482Z,18.09
2022-09-23T20:07:58.853Z,18.09
2022-09-23T20:10:26.168Z,18.06
2022-09-23T20:12:53.128Z,18.04
2022-09-23T20:15:19.634Z,18.05
2022-09-23T20:17:46.140Z,18.05
2022-09-23T20:20:13.379Z,18.05
2022-09-23T20:22:39.922Z,18.04
2022-09-23T20:25:12.782Z,18.04
2022-09-23T20:27:40.070Z,18.03
2022-09-23T20:30:07.564Z,18.02
2022-09-23T20:32:34.390Z,18.01
2022-09-23T20:35:00.902Z,18.00
2022-09-23T20:37:27.429Z,18.00
2022-09-23T20:39:53.876Z,17.99
2022-09-23T20:42:20.636Z,17.99
2022-09-23T20:44:47.299Z,18.00
2022-09-23T20:47:16.712Z,18.01
2022-09-23T20:49:45.270Z,17.98
2022-09-23T20:52:13.609Z,17.98
2022-09-23T20:54:40.240Z,17.97
2022-09-23T20:57:07.063Z,17.97
2022-09-23T20:59:34.296Z,17.98
2022-09-23T21:02:01.542Z,17.97
2022-09-23T21:04:28.949Z,17.94
2022-09-23T21:06:57.480Z,17.92
2022-09-23T21:09:27.796Z,17.92
2022-09-23T21:11:55.209Z,17.90
2022-09-23T21:14:22.599Z,17.89
2022-09-23T21:16:50.461Z,17.87
2022-09-23T21:19:18.528Z,17.86
2022-09-23T21:21:45.614Z,17.83
2022-09-23T21:24:42.201Z,17.82
2022-09-23T21:26:58.436Z,17.79
2022-09-23T21:29:25.045Z,17.76
2022-09-23T21:31:54.490Z,17.76
2022-09-23T21:34:21.270Z,17.76
2022-09-23T21:36:48.083Z,17.76
2022-09-23T21:39:14.756Z,17.74
2022-09-23T21:41:41.344Z,17.74
2022-09-23T21:44:08.209Z,17.72
2022-09-23T21:46:35.766Z,17.71
2022-09-23T21:49:03.624Z,17.66
2022-09-23T21:51:35.141Z,17.62
2022-09-23T21:54:01.699Z,17.63
2022-09-23T21:56:30.152Z,17.62
2022-09-23T21:58:58.410Z,17.59
2022-09-23T22:01:35.195Z,17.56
2022-09-23T22:04:09.074Z,17.55
2022-09-23T22:06:38.155Z,17.55
2022-09-23T22:09:08.821Z,17.54
2022-09-23T22:11:56.279Z,17.54
2022-09-23T22:14:25.748Z,17.53
2022-09-23T22:16:57.637Z,17.50
2022-09-23T22:19:34.888Z,17.48
2022-09-23T22:22:06.991Z,17.49
2022-09-23T22:24:33.404Z,17.47
2022-09-23T22:26:59.895Z,17.48
2022-09-23T22:29:44.922Z,17.48
2022-09-23T22:32:30.350Z,17.48
2022-09-23T22:34:57.115Z,17.47
2022-09-23T22:37:30.135Z,17.45
2022-09-23T22:39:56.575Z,17.45
2022-09-23T22:42:23.042Z,17.43
2022-09-23T22:44:50.485Z,17.43
2022-09-23T22:47:17.853Z,17.42
2022-09-23T22:49:45.440Z,17.42
2022-09-23T22:52:12.467Z,17.40
2022-09-23T22:54:38.856Z,17.38
2022-09-23T22:57:06.446Z,17.37
2022-09-23T22:59:33.063Z,17.37
2022-09-23T23:02:00.393Z,17.34
2022-09-23T23:04:28.492Z,17.31
2022-09-23T23:06:56.319Z,17.31
2022-09-23T23:09:22.749Z,17.28
2022-09-23T23:11:49.131Z,17.28
2022-09-23T23:14:17.603Z,17.26
2022-09-23T23:16:46.114Z,17.26
2022-09-23T23:19:16.319Z,17.24
2022-09-23T23:21:43.651Z,17.21
2022-09-23T23:24:17.868Z,17.18
2022-09-23T23:26:45.238Z,17.16
2022-09-23T23:29:13.609Z,17.13
2022-09-23T23:31:40.658Z,17.14
2022-09-23T23:34:10.874Z,17.13
2022-09-23T23:36:37.594Z,17.15
2022-09-23T23:39:04.468Z,17.14
2022-09-23T23:41:31.519Z,17.10
2022-09-23T23:43:59.950Z,17.08
2022-09-23T23:46:28.633Z,17.10
2022-09-23T23:48:56.742Z,17.08
2022-09-23T23:51:26.202Z,17.06
2022-09-23T23:53:53.935Z,17.07
2022-09-23T23:56:23.636Z,17.07
2022-09-23T23:58:57.750Z,17.08
